Lugoff, South Carolina
Current Conditions -  °F | °C
As of 10:55 AM on Sunday 28 Dec 2014 (Local Time) from KCDN Reporting Station
Light Rain Light Rain  
Wind Chill: 55°   Ceiling: 4700
Heat Index: 55°   Visibility: 3mi
Dew Point: 55°   Wind: 0mph
Humidity: 100%   Direction: NA
Pressure: 30.12"   Gusts: NA
Location:  34.22°N, 80.67°W
Report Text: KCDN 281555Z AUTO 00000KT 3SM -RA FEW019 SCT038 BKN047 13/13 A3012 RMK AO2 P0003 TSNO
Loading
Personal Weather Stations






























Interactive Weather Map New forecast layout! Learn more

10-Day Weather Forecast

Advertisements
Track Severe Weather on mobile